Time;durP1;ratioP1;P1;durP2;ratioP2;P2;SDS_P1;SDS_P2;PMS_P1;PMS_P2;Temp;Humidity;BMP_temperature;BMP_pressure;BME280_temperature;BME280_humidity;BME280_pressure;Samples;Min_cycle;Max_cycle;Signal;HPM_P1;HPM_P2
2024/03/08 00:01:10;;;;;;;11.30;7.27;;;0.70;99.90;0.20;101214.00;;;;4929080;28;94067;-64
2024/03/08 00:03:35;;;;;;;14.13;8.53;;;0.50;99.90;0.10;101211.00;;;;4929106;28;93331;-65
2024/03/08 00:06:01;;;;;;;11.10;7.23;;;0.50;99.90;0.00;101203.00;;;;4925170;28;121956;-64
2024/03/08 00:08:27;;;;;;;10.67;7.87;;;0.60;99.90;-0.10;101209.00;;;;4929924;28;92860;-63
2024/03/08 00:10:52;;;;;;;15.00;8.80;;;0.30;99.90;-0.10;101196.00;;;;4927698;28;109759;-63
2024/03/08 00:13:18;;;;;;;13.10;6.83;;;0.30;99.90;-0.20;101207.00;;;;4928639;28;122789;-62
2024/03/08 00:15:44;;;;;;;12.33;7.97;;;0.20;99.90;-0.30;101197.00;;;;4926011;28;122120;-63
2024/03/08 00:18:11;;;;;;;13.37;8.20;;;0.10;99.90;-0.30;101191.00;;;;4929617;28;96220;-62
2024/03/08 00:20:37;;;;;;;11.87;8.27;;;0.10;99.90;-0.40;101192.00;;;;4929790;28;93022;-63
2024/03/08 00:23:03;;;;;;;15.43;8.50;;;-0.10;99.90;-0.50;101195.00;;;;4929519;28;115598;-63
2024/03/08 00:25:28;;;;;;;12.43;8.63;;;-0.10;99.90;-0.60;101199.00;;;;4930581;28;94043;-63
2024/03/08 00:27:56;;;;;;;18.37;9.13;;;-0.10;99.90;-0.60;101193.00;;;;4925989;28;110615;-63
2024/03/08 00:30:23;;;;;;;9.63;6.63;;;-0.20;99.90;-0.70;101183.00;;;;4929554;28;92925;-63
2024/03/08 00:32:49;;;;;;;15.37;7.70;;;-0.30;99.90;-0.70;101188.00;;;;4930095;28;93597;-63
2024/03/08 00:35:15;;;;;;;14.87;8.57;;;-0.20;99.90;-0.80;101195.00;;;;4929999;28;93575;-61
2024/03/08 00:37:46;;;;;;;16.37;9.40;;;-0.40;99.90;-0.80;101194.00;;;;4933653;28;92958;-62
2024/03/08 00:40:12;;;;;;;14.63;8.27;;;-0.50;99.90;-0.90;101188.00;;;;4931098;28;93140;-62
2024/03/08 00:42:39;;;;;;;15.67;7.17;;;-0.50;99.90;-0.90;101180.00;;;;4930853;28;111374;-62
2024/03/08 00:45:05;;;;;;;15.50;9.23;;;-0.50;99.90;-1.00;101188.00;;;;4932116;28;94829;-63
2024/03/08 00:47:31;;;;;;;13.70;8.77;;;-0.50;99.90;-1.00;101180.00;;;;4933025;28;93041;-63
2024/03/08 00:49:57;;;;;;;13.13;8.37;;;-0.70;99.90;-1.10;101176.00;;;;4933369;28;93662;-63
2024/03/08 00:52:26;;;;;;;16.97;10.47;;;-0.60;99.90;-1.10;101177.00;;;;4930078;28;122479;-63
2024/03/08 00:54:52;;;;;;;11.70;7.87;;;-0.70;99.90;-1.20;101179.00;;;;4933792;28;93856;-63
2024/03/08 00:57:18;;;;;;;22.53;10.70;;;-0.80;99.90;-1.30;101168.00;;;;4933395;28;92866;-63
2024/03/08 00:59:44;;;;;;;14.20;8.50;;;-0.80;99.90;-1.30;101174.00;;;;4931172;28;92850;-63
2024/03/08 01:02:10;;;;;;;15.33;9.00;;;-0.80;99.90;-1.30;101168.00;;;;4928501;28;93486;-63
2024/03/08 01:04:36;;;;;;;12.13;8.43;;;-0.80;99.90;-1.40;101169.00;;;;4929960;28;93630;-64
2024/03/08 01:07:01;;;;;;;19.07;10.50;;;-0.90;99.90;-1.40;101165.00;;;;4927959;28;91985;-63
2024/03/08 01:09:27;;;;;;;14.03;8.67;;;-1.00;99.90;-1.40;101155.00;;;;4926965;28;109431;-62
2024/03/08 01:11:54;;;;;;;16.13;9.03;;;-1.00;99.90;-1.50;101152.00;;;;4927248;28;94210;-62
2024/03/08 01:14:25;;;;;;;15.13;9.53;;;-1.00;99.90;-1.50;101163.00;;;;4925876;28;93785;-63
2024/03/08 01:16:51;;;;;;;16.07;9.57;;;-1.10;99.90;-1.50;101165.00;;;;4924738;28;92808;-64
2024/03/08 01:19:17;;;;;;;12.40;8.13;;;-1.10;99.90;-1.50;101160.00;;;;4928795;28;92997;-63
2024/03/08 01:21:43;;;;;;;16.50;8.73;;;-1.00;99.90;-1.50;101165.00;;;;4934812;28;94104;-63
2024/03/08 01:24:09;;;;;;;20.93;10.80;;;-1.10;99.90;-1.60;101154.00;;;;4931593;28;94322;-63
2024/03/08 01:26:34;;;;;;;15.30;10.03;;;-1.10;99.90;-1.60;101156.00;;;;4929147;28;111093;-63
2024/03/08 01:29:03;;;;;;;13.53;9.73;;;-1.20;99.90;-1.60;101140.00;;;;4925815;28;108770;-63
2024/03/08 01:31:29;;;;;;;14.43;8.87;;;-1.10;99.90;-1.60;101141.00;;;;4924009;28;92679;-64
2024/03/08 01:33:56;;;;;;;18.00;10.07;;;-1.20;99.90;-1.60;101142.00;;;;4927811;28;93401;-63
2024/03/08 01:36:22;;;;;;;13.30;9.10;;;-1.20;99.90;-1.60;101141.00;;;;4924685;28;93181;-64
2024/03/08 01:38:47;;;;;;;22.13;10.30;;;-1.10;99.90;-1.70;101139.00;;;;4925156;28;108268;-64
2024/03/08 01:41:14;;;;;;;16.53;9.93;;;-1.20;99.90;-1.60;101132.00;;;;4922619;28;122885;-63
2024/03/08 01:43:39;;;;;;;21.23;12.00;;;-1.20;99.90;-1.60;101117.00;;;;4926601;28;93341;-63
2024/03/08 01:46:08;;;;;;;18.00;10.67;;;-1.30;99.90;-1.60;101125.00;;;;4923122;28;95156;-63
2024/03/08 01:48:34;;;;;;;21.73;10.80;;;-1.20;99.90;-1.60;101125.00;;;;4931797;28;93069;-63
2024/03/08 01:51:00;;;;;;;25.00;11.83;;;-1.10;99.90;-1.60;101119.00;;;;4930230;28;93829;-63
2024/03/08 01:53:28;;;;;;;18.43;10.63;;;-1.20;99.90;-1.60;101127.00;;;;4925991;28;93343;-62
2024/03/08 01:55:57;;;;;;;22.20;11.80;;;-1.10;99.90;-1.60;101117.00;;;;4943116;28;111426;-62
2024/03/08 01:58:23;;;;;;;12.87;9.73;;;-1.20;99.90;-1.60;101116.00;;;;4926065;28;93029;-65
2024/03/08 02:00:49;;;;;;;19.13;10.33;;;-1.10;99.90;-1.60;101100.00;;;;4929001;28;105126;-64
2024/03/08 02:03:19;;;;;;;18.57;11.50;;;-1.20;99.90;-1.60;101111.00;;;;4929757;28;123053;-64
2024/03/08 02:05:44;;;;;;;16.07;10.63;;;-1.10;99.90;-1.60;101096.00;;;;4933551;28;92616;-64
2024/03/08 02:08:14;;;;;;;23.47;12.93;;;-1.10;99.90;-1.60;101095.00;;;;4925734;28;107238;-64
2024/03/08 02:10:44;;;;;;;26.30;13.40;;;-1.10;99.90;-1.60;101086.00;;;;4928344;28;94309;-64
2024/03/08 02:13:11;;;;;;;15.77;12.13;;;-1.10;99.90;-1.60;101082.00;;;;4926011;28;123437;-65
2024/03/08 02:15:54;;;;;;;21.27;12.83;;;-1.00;99.90;-1.60;101095.00;;;;4930342;28;93012;-64
2024/03/08 02:18:21;;;;;;;27.50;14.73;;;-1.10;99.90;-1.50;101086.00;;;;4923646;28;94490;-64
2024/03/08 02:20:54;;;;;;;17.77;11.17;;;-1.10;99.90;-1.50;101103.00;;;;4927053;28;93144;-66
2024/03/08 02:23:20;;;;;;;20.80;12.77;;;-1.00;99.90;-1.40;101091.00;;;;4926023;28;92784;-65
2024/03/08 02:25:47;;;;;;;20.43;11.80;;;-1.00;99.90;-1.40;101084.00;;;;4920523;28;92749;-65
2024/03/08 02:28:14;;;;;;;21.07;13.27;;;-1.00;99.90;-1.50;101086.00;;;;4922935;28;94521;-65
2024/03/08 02:30:40;;;;;;;20.87;12.80;;;-1.00;99.90;-1.40;101087.00;;;;4925094;28;94145;-65
2024/03/08 02:33:06;;;;;;;21.57;12.97;;;-1.00;99.90;-1.40;101084.00;;;;4923704;28;93088;-66
2024/03/08 02:35:33;;;;;;;20.27;13.07;;;-1.00;99.90;-1.50;101088.00;;;;4930348;28;93599;-65
2024/03/08 02:38:00;;;;;;;18.43;11.47;;;-1.00;99.90;-1.40;101103.00;;;;4931980;28;108390;-65
2024/03/08 02:40:25;;;;;;;28.23;14.40;;;-1.00;99.90;-1.40;101095.00;;;;4928097;28;93420;-65
2024/03/08 02:42:51;;;;;;;24.83;12.70;;;-1.00;99.90;-1.50;101089.00;;;;4928492;28;122503;-65
2024/03/08 02:45:20;;;;;;;17.87;11.97;;;-1.90;99.90;-1.40;101078.00;;;;4925019;28;112662;-66
2024/03/08 02:47:46;;;;;;;24.27;13.83;;;-1.10;99.90;-1.50;101075.00;;;;4927744;28;93026;-65
2024/03/08 02:50:16;;;;;;;25.83;12.87;;;-1.00;99.90;-1.40;101072.00;;;;4924644;28;120598;-65
2024/03/08 02:52:42;;;;;;;26.33;15.37;;;-1.10;99.90;-1.40;101073.00;;;;4927941;28;93972;-65
2024/03/08 02:55:10;;;;;;;23.13;14.23;;;-1.10;99.90;-1.40;101066.00;;;;4921721;28;106335;-66
2024/03/08 02:57:36;;;;;;;17.23;12.47;;;-1.00;99.90;-1.40;101069.00;;;;4925454;28;92850;-65
2024/03/08 03:00:09;;;;;;;25.37;15.83;;;0.00;99.90;-1.40;101075.00;;;;4919720;28;114608;-64
2024/03/08 03:02:34;;;;;;;20.57;12.87;;;-1.00;99.90;-1.40;101064.00;;;;4929449;28;93148;-65
2024/03/08 03:05:05;;;;;;;22.53;12.97;;;-1.00;99.90;-1.40;101066.00;;;;4924217;28;100611;-66
2024/03/08 03:07:31;;;;;;;30.53;15.73;;;-0.90;99.90;-1.40;101081.00;;;;4928510;28;92911;-64
2024/03/08 03:09:56;;;;;;;21.07;12.87;;;-1.00;99.90;-1.40;101070.00;;;;4927730;28;113703;-66
2024/03/08 03:12:22;;;;;;;20.40;12.97;;;-0.70;99.90;-1.40;101069.00;;;;4924442;28;121868;-64
2024/03/08 03:14:48;;;;;;;22.37;13.20;;;-1.00;99.90;-1.40;101067.00;;;;4927143;28;93180;-65
2024/03/08 03:17:13;;;;;;;32.03;15.20;;;-1.00;99.90;-1.40;101071.00;;;;4925949;28;105437;-64
2024/03/08 03:19:42;;;;;;;24.80;14.37;;;-0.40;99.90;-1.40;101075.00;;;;4925875;28;123936;-65
2024/03/08 03:22:10;;;;;;;26.57;15.20;;;-1.00;99.90;-1.40;101073.00;;;;4925208;28;93279;-64
2024/03/08 03:24:38;;;;;;;24.33;14.50;;;-0.90;99.90;-1.40;101073.00;;;;4926303;28;93016;-65
2024/03/08 03:27:10;;;;;;;32.70;15.90;;;-1.00;99.90;-1.40;101079.00;;;;4926452;28;92996;-65
2024/03/08 03:29:42;;;;;;;22.07;13.60;;;-1.00;99.90;-1.40;101065.00;;;;4921213;28;93649;-64
2024/03/08 03:32:08;;;;;;;27.00;15.40;;;-1.00;99.90;-1.40;101067.00;;;;4924919;28;94060;-65
2024/03/08 03:34:37;;;;;;;19.93;14.60;;;-1.00;99.90;-1.40;101067.00;;;;4924672;28;92487;-64
2024/03/08 03:37:04;;;;;;;22.70;14.10;;;-1.10;99.90;-1.40;101070.00;;;;4924990;28;98328;-64
2024/03/08 03:39:48;;;;;;;21.10;13.60;;;-0.90;99.90;-1.40;101069.00;;;;4922228;28;93195;-64
2024/03/08 03:42:16;;;;;;;23.53;13.50;;;-1.10;99.90;-1.40;101062.00;;;;4927632;28;93873;-64
2024/03/08 03:44:47;;;;;;;20.90;13.73;;;-1.00;99.90;-1.50;101070.00;;;;4929518;28;93067;-65
2024/03/08 03:47:14;;;;;;;25.97;16.17;;;-1.10;99.90;-1.50;101062.00;;;;4925916;28;98506;-65
2024/03/08 03:49:40;;;;;;;20.83;12.73;;;-1.00;99.90;-1.50;101055.00;;;;4927462;28;93820;-64
2024/03/08 03:52:06;;;;;;;29.77;17.30;;;-1.20;99.90;-1.50;101053.00;;;;4931959;28;117977;-64
2024/03/08 03:54:32;;;;;;;25.63;14.60;;;-1.10;99.90;-1.50;101060.00;;;;4928976;28;112442;-64
2024/03/08 03:56:58;;;;;;;27.17;16.00;;;-1.10;99.90;-1.60;101052.00;;;;4926334;28;93145;-65
2024/03/08 03:59:24;;;;;;;20.40;13.70;;;-1.20;99.90;-1.60;101046.00;;;;4924516;28;93756;-64
2024/03/08 04:01:50;;;;;;;25.50;15.57;;;-1.20;99.90;-1.60;101063.00;;;;4926170;28;102426;-64
2024/03/08 04:04:16;;;;;;;25.27;15.70;;;-1.30;99.90;-1.60;101059.00;;;;4930102;28;112514;-65
2024/03/08 04:06:41;;;;;;;21.53;13.33;;;-1.20;99.90;-1.70;101060.00;;;;4928611;28;93924;-65
2024/03/08 04:09:07;;;;;;;21.90;13.47;;;-1.20;99.90;-1.70;101053.00;;;;4929240;28;94248;-64
2024/03/08 04:11:33;;;;;;;29.77;16.30;;;-1.30;99.90;-1.70;101055.00;;;;4925630;28;93664;-65
2024/03/08 04:13:59;;;;;;;33.80;17.23;;;-1.20;99.90;-1.70;101062.00;;;;4924500;28;105064;-65
2024/03/08 04:16:25;;;;;;;19.07;14.53;;;-1.30;99.90;-1.70;101054.00;;;;4929467;28;107741;-66
2024/03/08 04:18:52;;;;;;;21.00;14.30;;;-1.30;99.90;-1.70;101051.00;;;;4928419;28;94083;-65
2024/03/08 04:21:19;;;;;;;20.97;14.87;;;-1.20;99.90;-1.70;101059.00;;;;4926920;28;94247;-64
2024/03/08 04:23:45;;;;;;;26.30;15.43;;;-1.30;99.90;-1.70;101053.00;;;;4933515;28;92446;-63
2024/03/08 04:26:11;;;;;;;16.57;13.00;;;-1.30;99.90;-1.70;101039.00;;;;4933873;28;92884;-63
2024/03/08 04:28:37;;;;;;;23.43;15.80;;;-1.30;99.90;-1.70;101047.00;;;;4926515;28;107638;-64
2024/03/08 04:31:04;;;;;;;23.10;14.83;;;-1.30;99.90;-1.70;101042.00;;;;4925085;28;94204;-64
2024/03/08 04:33:29;;;;;;;31.37;16.20;;;-1.30;99.90;-1.80;101034.00;;;;4925292;28;93130;-64
2024/03/08 04:35:55;;;;;;;25.83;15.07;;;-1.30;99.90;-1.80;101044.00;;;;4927849;28;107341;-64
2024/03/08 04:38:21;;;;;;;23.57;14.97;;;-1.30;99.90;-1.80;101036.00;;;;4928015;28;121872;-64
2024/03/08 04:40:47;;;;;;;27.97;17.10;;;-1.30;99.90;-1.80;101039.00;;;;4926796;28;93427;-64
2024/03/08 04:43:14;;;;;;;28.93;16.80;;;-1.40;99.90;-1.80;101030.00;;;;4929730;28;106999;-65
2024/03/08 04:45:40;;;;;;;22.53;15.70;;;-1.40;99.90;-1.80;101046.00;;;;4929222;28;92991;-65
2024/03/08 04:48:08;;;;;;;27.47;16.03;;;-1.40;99.90;-1.90;101048.00;;;;4927003;28;92658;-68
2024/03/08 04:50:34;;;;;;;25.10;15.40;;;-1.50;99.90;-1.90;101041.00;;;;4915314;28;93182;-65
2024/03/08 04:52:59;;;;;;;28.87;16.93;;;-1.40;99.90;-1.90;101034.00;;;;4930210;28;93216;-64
2024/03/08 04:55:25;;;;;;;27.40;16.47;;;-1.40;99.90;-1.90;101031.00;;;;4929484;28;106188;-66
2024/03/08 04:57:51;;;;;;;25.17;15.27;;;-1.40;99.90;-1.90;101035.00;;;;4929047;28;93485;-63
2024/03/08 05:00:17;;;;;;;28.27;17.87;;;-1.50;99.90;-2.00;101041.00;;;;4926435;28;122783;-65
2024/03/08 05:02:42;;;;;;;24.27;16.57;;;-1.50;99.90;-2.00;101049.00;;;;4927838;28;104814;-65
2024/03/08 05:05:11;;;;;;;30.97;15.83;;;-1.60;99.90;-2.00;101036.00;;;;4925072;28;93044;-65
2024/03/08 05:07:37;;;;;;;34.07;18.20;;;-1.60;99.90;-2.00;101041.00;;;;4930522;28;94065;-65
2024/03/08 05:10:03;;;;;;;22.50;14.07;;;-1.50;99.90;-2.00;101047.00;;;;4928144;28;122740;-65
2024/03/08 05:12:29;;;;;;;26.83;14.87;;;-1.60;99.90;-2.10;101031.00;;;;4929006;28;93538;-65
2024/03/08 05:14:55;;;;;;;34.77;17.27;;;-1.60;99.90;-2.10;101029.00;;;;4930450;28;100661;-65
2024/03/08 05:17:20;;;;;;;32.27;17.17;;;-1.60;99.90;-2.10;101042.00;;;;4927487;28;93353;-64
2024/03/08 05:19:46;;;;;;;27.30;17.40;;;-1.60;99.90;-2.10;101036.00;;;;4927879;28;123573;-64
2024/03/08 05:22:12;;;;;;;36.60;17.83;;;-1.70;99.90;-2.10;101042.00;;;;4925015;28;112983;-65
2024/03/08 05:24:37;;;;;;;32.80;19.83;;;-1.60;99.90;-2.10;101033.00;;;;4926349;28;109460;-65
2024/03/08 05:27:03;;;;;;;42.00;20.97;;;-1.70;99.90;-2.10;101038.00;;;;4928847;28;93605;-64
2024/03/08 05:29:29;;;;;;;29.33;17.17;;;-1.50;99.90;-2.10;101037.00;;;;4926816;28;115265;-64
2024/03/08 05:31:56;;;;;;;32.63;18.40;;;-1.60;99.90;-2.10;101042.00;;;;4926940;28;92934;-64
2024/03/08 05:34:22;;;;;;;37.47;19.50;;;-1.80;99.90;-2.10;101025.00;;;;4924656;28;92965;-65
2024/03/08 05:36:53;;;;;;;33.47;20.40;;;-1.70;99.90;-2.10;101027.00;;;;4925589;28;92341;-64
2024/03/08 05:39:19;;;;;;;30.53;18.07;;;-1.70;99.90;-2.10;101029.00;;;;4925816;28;93198;-64
2024/03/08 05:41:45;;;;;;;37.73;20.30;;;-1.70;99.90;-2.10;101025.00;;;;4925352;28;92803;-64
2024/03/08 05:44:12;;;;;;;36.20;18.10;;;-1.60;99.90;-2.10;101019.00;;;;4924117;28;93785;-64
2024/03/08 05:46:39;;;;;;;36.17;19.57;;;-1.70;99.90;-2.00;101027.00;;;;4921470;28;93914;-64
2024/03/08 05:49:09;;;;;;;35.30;18.40;;;-1.60;99.90;-2.00;101019.00;;;;4927070;28;110974;-63
2024/03/08 05:51:38;;;;;;;29.67;18.60;;;-1.60;99.90;-2.00;101014.00;;;;4929009;28;93273;-66
2024/03/08 05:54:12;;;;;;;38.20;19.50;;;-1.60;99.90;-2.00;101012.00;;;;4925115;28;93611;-64
2024/03/08 05:56:43;;;;;;;32.73;19.10;;;-1.20;99.90;-2.00;101021.00;;;;4922365;28;94541;-64
2024/03/08 05:59:09;;;;;;;32.87;20.20;;;-1.60;99.90;-2.00;101017.00;;;;4922908;28;92988;-65
2024/03/08 06:01:36;;;;;;;36.27;19.40;;;-1.50;99.90;-1.90;101023.00;;;;4923719;28;92179;-66
2024/03/08 06:04:03;;;;;;;32.20;18.40;;;-1.50;99.90;-1.90;101022.00;;;;4922390;28;92956;-66
2024/03/08 06:06:29;;;;;;;27.73;17.13;;;-1.70;99.90;-1.80;101035.00;;;;4925501;28;94422;-63
2024/03/08 06:08:58;;;;;;;24.37;15.97;;;-1.40;99.90;-1.70;101024.00;;;;4922572;28;94628;-63
2024/03/08 06:11:26;;;;;;;36.53;17.60;;;-1.30;99.90;-1.70;101019.00;;;;4922835;28;92988;-65
2024/03/08 06:13:59;;;;;;;34.07;18.13;;;-1.10;99.90;-1.60;101018.00;;;;4924640;28;92959;-65
2024/03/08 06:16:28;;;;;;;34.67;18.30;;;-1.20;99.90;-1.50;101029.00;;;;4922382;28;94207;-66
2024/03/08 06:18:57;;;;;;;26.00;17.00;;;-1.10;99.90;-1.40;101026.00;;;;4923526;28;93002;-66
2024/03/08 06:21:24;;;;;;;31.70;17.80;;;-1.10;99.90;-1.30;101041.00;;;;4928182;28;93438;-63
2024/03/08 06:23:50;;;;;;;29.73;16.80;;;-1.00;99.90;-1.20;101029.00;;;;4929333;28;92966;-63
2024/03/08 06:26:16;;;;;;;28.40;17.97;;;-0.90;99.90;-1.10;101024.00;;;;4923842;28;95654;-65
2024/03/08 06:28:42;;;;;;;31.97;16.33;;;-0.80;99.90;-1.00;101023.00;;;;4929290;28;93005;-65
2024/03/08 06:31:08;;;;;;;26.20;14.37;;;-0.60;99.90;-0.90;101029.00;;;;4929807;28;113089;-64
2024/03/08 06:33:35;;;;;;;29.40;16.97;;;-0.60;99.90;-0.80;101026.00;;;;4925294;28;94011;-63
2024/03/08 06:36:00;;;;;;;23.40;14.90;;;-0.40;99.90;-0.70;101032.00;;;;4924983;28;93388;-65
2024/03/08 06:38:26;;;;;;;30.93;18.13;;;-0.40;99.90;-0.60;101029.00;;;;4921021;28;121652;-65
2024/03/08 06:40:54;;;;;;;32.97;16.97;;;-0.30;99.90;-0.40;101018.00;;;;4923865;28;112770;-64
2024/03/08 06:43:20;;;;;;;21.93;14.13;;;-0.10;99.90;-0.30;101019.00;;;;4920693;28;94470;-64
2024/03/08 06:45:48;;;;;;;25.23;15.23;;;0.00;99.90;-0.10;101018.00;;;;4920308;28;123211;-64
2024/03/08 06:48:16;;;;;;;26.27;15.10;;;0.10;99.90;0.00;101015.00;;;;4923998;28;93712;-64
2024/03/08 06:50:44;;;;;;;22.57;14.27;;;0.40;99.90;0.20;101018.00;;;;4924909;28;92491;-64
2024/03/08 06:53:10;;;;;;;24.53;15.53;;;0.50;99.90;0.40;101028.00;;;;4919762;28;92924;-65
2024/03/08 06:55:36;;;;;;;26.77;14.83;;;0.60;99.90;0.50;101018.00;;;;4921414;28;113664;-64
2024/03/08 06:58:02;;;;;;;23.43;15.50;;;0.70;99.90;0.70;101019.00;;;;4923810;28;122785;-64
2024/03/08 07:00:30;;;;;;;22.87;14.47;;;0.90;99.90;0.80;101018.00;;;;4923840;28;103544;-64
2024/03/08 07:03:02;;;;;;;21.73;13.90;;;1.10;99.90;1.00;101010.00;;;;4921519;28;93158;-65
2024/03/08 07:05:29;;;;;;;21.77;13.57;;;1.30;99.90;1.10;101014.00;;;;4922611;28;94175;-65
2024/03/08 07:07:54;;;;;;;24.43;15.77;;;1.50;99.90;1.20;101023.00;;;;4921567;28;93515;-64
2024/03/08 07:10:24;;;;;;;23.70;14.33;;;2.50;99.90;1.30;101010.00;;;;4920940;28;92919;-65
2024/03/08 07:12:51;;;;;;;22.40;14.70;;;1.50;99.90;1.50;101017.00;;;;4922238;28;92925;-64
2024/03/08 07:15:19;;;;;;;21.87;14.63;;;1.40;99.90;1.70;101010.00;;;;4922441;28;99603;-64
2024/03/08 07:17:47;;;;;;;24.30;15.17;;;1.90;99.90;1.80;101009.00;;;;4925491;28;93029;-64
2024/03/08 07:20:15;;;;;;;21.63;14.33;;;2.00;99.90;2.00;101027.00;;;;4922574;28;113835;-63
2024/03/08 07:22:41;;;;;;;25.37;15.53;;;2.20;99.90;2.20;101020.00;;;;4923025;28;94134;-65
2024/03/08 07:27:36;;;;;;;18.53;12.50;;;2.50;99.90;2.60;101013.00;;;;4926499;28;93605;-64
2024/03/08 07:30:05;;;;;;;28.43;15.17;;;2.80;99.90;2.80;101018.00;;;;4928312;28;93636;-64
2024/03/08 07:32:31;;;;;;;21.87;14.70;;;3.00;99.90;3.00;101011.00;;;;4925477;28;95405;-64
2024/03/08 07:34:57;;;;;;;27.97;17.30;;;3.20;99.90;3.10;101017.00;;;;4924757;28;94099;-64
2024/03/08 07:37:23;;;;;;;22.73;15.07;;;3.60;99.90;3.20;101010.00;;;;4924527;28;122195;-62
2024/03/08 07:39:49;;;;;;;18.67;12.90;;;3.30;99.90;3.30;101011.00;;;;4929818;28;92292;-64
2024/03/08 07:42:14;;;;;;;23.13;13.63;;;3.70;99.90;3.50;101009.00;;;;4925802;28;108470;-64
2024/03/08 07:44:40;;;;;;;27.03;13.80;;;4.40;99.90;3.70;101010.00;;;;4924566;28;106386;-64
2024/03/08 07:47:09;;;;;;;20.90;13.07;;;3.70;99.90;3.90;101018.00;;;;4926467;28;119573;-63
2024/03/08 07:49:37;;;;;;;17.47;13.63;;;4.10;99.90;4.20;101013.00;;;;4930027;28;94263;-63
2024/03/08 07:52:04;;;;;;;21.13;13.80;;;4.20;99.90;4.40;101012.00;;;;4926349;28;109002;-64
2024/03/08 07:54:30;;;;;;;23.87;14.30;;;4.90;99.90;4.60;101018.00;;;;4929460;28;92899;-64
2024/03/08 07:56:56;;;;;;;24.67;13.83;;;4.60;99.90;4.80;101014.00;;;;4927142;28;115264;-65
2024/03/08 07:59:22;;;;;;;29.37;15.40;;;4.90;99.90;5.00;101001.00;;;;4925047;28;111438;-64
2024/03/08 08:01:48;;;;;;;25.77;14.40;;;5.20;99.90;5.20;101011.00;;;;4925487;28;103613;-64
2024/03/08 08:04:14;;;;;;;21.97;13.47;;;5.30;99.90;5.50;101008.00;;;;4925576;28;121029;-64
2024/03/08 08:06:43;;;;;;;20.30;13.03;;;5.50;99.90;5.70;101011.00;;;;4927438;28;92843;-64
2024/03/08 08:09:15;;;;;;;26.33;13.73;;;6.60;99.90;5.90;101011.00;;;;4925564;28;92719;-65
2024/03/08 08:11:43;;;;;;;19.93;12.93;;;6.00;99.90;6.10;100992.00;;;;4925753;28;94088;-64
2024/03/08 08:14:09;;;;;;;27.60;15.20;;;6.20;99.90;6.20;101001.00;;;;4926527;28;93633;-63
2024/03/08 08:16:41;;;;;;;22.63;13.13;;;6.30;99.90;6.30;100995.00;;;;4926294;28;112113;-64
2024/03/08 08:19:07;;;;;;;21.73;12.77;;;6.40;99.90;6.50;100993.00;;;;4921353;28;96039;-64
2024/03/08 08:21:36;;;;;;;28.27;14.00;;;7.30;99.90;6.60;100995.00;;;;4929388;28;92676;-64
2024/03/08 08:24:04;;;;;;;22.47;15.13;;;7.50;99.90;6.80;100988.00;;;;4926337;28;93226;-65
2024/03/08 08:26:30;;;;;;;17.60;12.23;;;7.00;99.90;7.00;100989.00;;;;4926675;28;93586;-64
2024/03/08 08:28:56;;;;;;;22.13;14.43;;;7.20;99.90;7.20;100989.00;;;;4928686;28;92547;-64
2024/03/08 08:31:21;;;;;;;20.07;12.93;;;7.30;99.90;7.40;100988.00;;;;4926852;28;92823;-65
2024/03/08 08:33:48;;;;;;;22.93;14.57;;;7.50;99.90;7.70;100991.00;;;;4929382;28;119880;-65
2024/03/08 08:36:14;;;;;;;22.10;12.30;;;7.70;99.90;7.90;100990.00;;;;4923790;28;94131;-64
2024/03/08 08:38:42;;;;;;;26.23;13.70;;;7.90;99.90;8.00;100992.00;;;;4923136;28;93291;-64
2024/03/08 08:41:10;;;;;;;21.93;12.40;;;8.10;99.90;8.20;100986.00;;;;4941941;28;93083;-64
2024/03/08 08:43:36;;;;;;;27.87;14.23;;;8.20;99.90;8.30;100986.00;;;;4929044;28;93579;-64
2024/03/08 08:46:02;;;;;;;22.10;13.30;;;8.50;99.30;8.40;100997.00;;;;4929214;28;94693;-64
2024/03/08 08:48:30;;;;;;;21.50;13.53;;;8.50;98.90;8.60;100989.00;;;;4929621;28;93026;-64
2024/03/08 08:50:56;;;;;;;23.67;11.77;;;8.60;98.50;8.80;100984.00;;;;4927854;28;92531;-65
2024/03/08 08:53:21;;;;;;;18.53;11.70;;;8.80;98.00;8.90;100986.00;;;;4924121;28;107418;-64
2024/03/08 08:55:48;;;;;;;22.70;12.40;;;9.00;97.90;9.10;100983.00;;;;4925785;28;97014;-64
2024/03/08 08:58:13;;;;;;;16.50;12.20;;;9.10;97.20;9.30;100987.00;;;;4923288;28;93355;-64
2024/03/08 09:00:40;;;;;;;22.60;13.27;;;9.30;96.70;9.30;100989.00;;;;4926501;28;94090;-65
2024/03/08 09:03:09;;;;;;;19.00;11.67;;;9.80;95.50;9.40;100980.00;;;;4920619;28;93809;-64
2024/03/08 09:05:34;;;;;;;23.00;13.10;;;9.50;95.00;9.50;100979.00;;;;4923447;28;93530;-64
2024/03/08 09:08:00;;;;;;;20.37;12.00;;;9.50;94.70;9.60;100976.00;;;;4923473;28;93032;-64
2024/03/08 09:10:27;;;;;;;20.23;13.07;;;9.60;94.70;9.70;100971.00;;;;4924803;28;93022;-65
2024/03/08 09:12:53;;;;;;;19.80;13.17;;;9.70;93.80;9.90;100974.00;;;;4921815;28;93803;-64
2024/03/08 09:15:20;;;;;;;20.80;12.37;;;9.80;93.90;10.00;100970.00;;;;4927793;28;93891;-64
2024/03/08 09:17:46;;;;;;;15.63;9.97;;;10.00;93.40;10.20;100960.00;;;;4925868;28;92532;-65
2024/03/08 09:20:15;;;;;;;19.90;12.63;;;10.20;91.30;10.20;100963.00;;;;4928862;28;93270;-64
2024/03/08 09:22:45;;;;;;;20.83;12.00;;;10.20;91.00;10.20;100956.00;;;;4922504;28;93704;-64
2024/03/08 09:25:11;;;;;;;21.17;13.00;;;10.30;90.60;10.20;100959.00;;;;4921078;28;93995;-64
2024/03/08 09:27:37;;;;;;;16.20;11.07;;;10.30;90.00;10.20;100963.00;;;;4925266;28;93181;-65
2024/03/08 09:30:04;;;;;;;17.03;11.83;;;10.20;90.10;10.30;100963.00;;;;4922744;28;92913;-64
2024/03/08 09:32:30;;;;;;;19.23;12.03;;;10.30;89.30;10.30;100952.00;;;;4927809;28;94099;-63
2024/03/08 09:34:56;;;;;;;19.20;12.33;;;10.40;89.30;10.40;100954.00;;;;4924192;28;93918;-64
2024/03/08 09:37:22;;;;;;;20.27;12.37;;;10.40;88.50;10.60;100957.00;;;;4925832;28;93207;-64
2024/03/08 09:39:48;;;;;;;18.07;12.17;;;10.60;86.40;10.60;100952.00;;;;4927710;28;93246;-64
2024/03/08 09:42:16;;;;;;;16.53;12.00;;;10.60;86.50;10.70;100954.00;;;;4924880;28;120566;-64
2024/03/08 09:44:46;;;;;;;18.80;11.90;;;10.70;86.70;10.90;100948.00;;;;4921565;28;122775;-64
2024/03/08 09:47:13;;;;;;;17.80;11.30;;;10.80;83.80;10.90;100944.00;;;;4920630;28;94492;-65
2024/03/08 09:49:40;;;;;;;16.00;10.00;;;10.90;84.60;11.20;100940.00;;;;4917681;28;94030;-64
2024/03/08 09:52:07;;;;;;;21.80;11.77;;;11.00;83.90;11.30;100936.00;;;;4923184;28;94209;-65
2024/03/08 09:54:34;;;;;;;16.43;10.40;;;11.20;81.20;11.40;100933.00;;;;4924067;28;93791;-64
2024/03/08 09:56:59;;;;;;;16.13;9.27;;;11.20;80.10;11.40;100931.00;;;;4923752;28;99632;-64
2024/03/08 10:01:56;;;;;;;14.20;10.00;;;11.30;76.90;11.30;100930.00;;;;4923459;28;117056;-64
2024/03/08 10:04:22;;;;;;;21.67;9.80;;;11.20;76.30;11.30;100920.00;;;;4926431;28;94217;-64
2024/03/08 10:06:48;;;;;;;18.40;9.57;;;11.20;75.80;11.40;100923.00;;;;4928241;28;112825;-64
2024/03/08 10:09:15;;;;;;;13.33;8.70;;;11.30;75.30;11.40;100915.00;;;;4924336;28;93017;-65
2024/03/08 10:11:41;;;;;;;12.00;8.47;;;11.30;74.10;11.70;100914.00;;;;4921690;28;94089;-65
2024/03/08 10:14:09;;;;;;;14.87;7.73;;;11.50;75.60;11.90;100917.00;;;;4924610;28;121050;-65
2024/03/08 10:16:36;;;;;;;15.87;9.07;;;11.60;72.00;11.80;100909.00;;;;4928437;28;93221;-64
2024/03/08 10:19:03;;;;;;;11.33;7.40;;;11.70;69.60;11.90;100911.00;;;;4926970;28;109570;-64
2024/03/08 10:21:28;;;;;;;14.90;8.13;;;11.80;68.90;11.80;100904.00;;;;4922798;28;94809;-64
2024/03/08 10:23:56;;;;;;;12.70;7.27;;;11.70;67.00;11.90;100893.00;;;;4930692;28;120870;-65
2024/03/08 10:26:21;;;;;;;14.13;8.53;;;11.70;66.70;12.10;100887.00;;;;4931272;28;110247;-64
2024/03/08 10:28:48;;;;;;;14.97;8.03;;;11.90;68.30;12.40;100897.00;;;;4924640;28;93366;-64
2024/03/08 10:31:19;;;;;;;13.97;6.93;;;12.10;66.10;12.60;100901.00;;;;4922902;28;92816;-65
2024/03/08 10:33:49;;;;;;;13.33;6.30;;;12.30;65.30;12.60;100897.00;;;;4924727;28;93059;-64
2024/03/08 10:36:16;;;;;;;12.90;7.10;;;12.40;61.40;12.40;100897.00;;;;4923879;28;92934;-65
2024/03/08 10:38:46;;;;;;;9.90;6.47;;;12.20;61.40;12.50;100904.00;;;;4923519;28;93828;-64